createdAt,value
2019-04-30T00:00:55.420Z,12.30
2019-04-30T00:03:40.359Z,12.30
2019-04-30T00:06:21.865Z,12.30
2019-04-30T00:09:02.888Z,12.30
2019-04-30T00:11:43.287Z,12.30
2019-04-30T00:14:25.339Z,12.20
2019-04-30T00:17:06.452Z,12.20
2019-04-30T00:19:50.556Z,12.20
2019-04-30T00:22:34.202Z,12.20
2019-04-30T00:25:15.204Z,12.20
2019-04-30T00:28:00.155Z,12.10
2019-04-30T00:30:39.272Z,12.10
2019-04-30T00:33:22.347Z,12.10
2019-04-30T00:36:05.015Z,12.10
2019-04-30T00:38:46.192Z,12.00
2019-04-30T00:41:26.600Z,12.00
2019-04-30T00:44:07.353Z,12.00
2019-04-30T00:46:48.092Z,12.00
2019-04-30T00:49:28.412Z,12.00
2019-04-30T00:52:09.264Z,12.00
2019-04-30T00:54:49.979Z,11.90
2019-04-30T00:57:30.632Z,11.80
2019-04-30T01:00:11.054Z,11.80
2019-04-30T01:02:56.183Z,11.80
2019-04-30T01:05:39.526Z,11.80
2019-04-30T01:08:21.133Z,11.80
2019-04-30T01:11:06.522Z,11.80
2019-04-30T01:13:50.196Z,11.80
2019-04-30T01:16:33.209Z,11.80
2019-04-30T01:19:29.862Z,11.80
2019-04-30T01:22:11.681Z,11.80
2019-04-30T01:25:01.298Z,11.80
2019-04-30T01:27:49.532Z,11.80
2019-04-30T01:30:37.255Z,11.80
2019-04-30T01:33:19.132Z,11.80
2019-04-30T01:36:04.033Z,11.80
2019-04-30T01:38:44.750Z,11.80
2019-04-30T01:41:31.362Z,11.80
2019-04-30T01:44:19.621Z,11.80
2019-04-30T01:47:09.228Z,11.80
2019-04-30T01:50:01.023Z,11.80
2019-04-30T01:53:11.517Z,11.70
2019-04-30T01:56:14.555Z,11.70
2019-04-30T02:01:58.318Z,11.80
2019-04-30T02:04:46.608Z,11.80
2019-04-30T02:07:34.667Z,11.80
2019-04-30T02:10:22.407Z,11.80
2019-04-30T02:13:10.469Z,11.80
2019-04-30T02:15:59.305Z,11.90
2019-04-30T02:18:49.543Z,11.90
2019-04-30T02:21:38.558Z,11.90
2019-04-30T02:24:28.878Z,11.90
2019-04-30T02:27:16.883Z,11.80
2019-04-30T02:30:24.182Z,11.80
2019-04-30T02:33:11.908Z,11.80
2019-04-30T02:36:19.820Z,11.80
2019-04-30T02:42:29.644Z,11.80
2019-04-30T02:45:16.898Z,11.80
2019-04-30T02:48:04.975Z,11.80
2019-04-30T02:51:13.429Z,11.80
2019-04-30T02:54:23.890Z,11.80
2019-04-30T03:00:20.975Z,11.80
2019-04-30T03:03:10.338Z,11.80
2019-04-30T03:05:59.724Z,11.70
2019-04-30T03:08:51.182Z,11.70
2019-04-30T03:11:40.523Z,11.70
2019-04-30T03:14:30.027Z,11.70
2019-04-30T03:20:45.522Z,11.60
2019-04-30T03:23:33.544Z,11.60
2019-04-30T03:26:21.280Z,11.50
2019-04-30T03:29:11.240Z,11.40
2019-04-30T03:32:02.644Z,11.30
2019-04-30T03:34:42.372Z,11.30
2019-04-30T03:37:23.247Z,11.20
2019-04-30T03:40:04.134Z,11.10
2019-04-30T03:42:44.533Z,11.10
2019-04-30T03:45:25.053Z,11.00
2019-04-30T03:48:05.413Z,10.90
2019-04-30T03:50:55.527Z,10.80
2019-04-30T03:53:29.855Z,10.70
2019-04-30T03:56:10.104Z,10.70
2019-04-30T03:58:50.837Z,10.70
2019-04-30T04:01:36.216Z,10.70
2019-04-30T04:04:20.073Z,10.70
2019-04-30T04:07:02.624Z,10.70
2019-04-30T04:10:03.194Z,10.80
2019-04-30T04:12:44.416Z,10.80
2019-04-30T04:15:24.703Z,10.90
2019-04-30T04:18:05.884Z,10.90
2019-04-30T04:20:46.331Z,10.90
2019-04-30T04:23:29.647Z,10.90
2019-04-30T04:26:09.678Z,10.90
2019-04-30T04:28:50.477Z,10.90
2019-04-30T04:31:31.317Z,10.80
2019-04-30T04:34:11.480Z,10.90
2019-04-30T04:36:52.409Z,10.90
2019-04-30T04:39:32.854Z,10.90
2019-04-30T04:42:13.680Z,11.00
2019-04-30T04:44:54.532Z,11.00
2019-04-30T04:47:35.320Z,11.00
2019-04-30T04:50:15.936Z,11.00
2019-04-30T04:52:56.658Z,11.10
2019-04-30T04:55:39.855Z,11.10
2019-04-30T04:58:21.626Z,11.20
2019-04-30T05:01:03.008Z,11.30
2019-04-30T05:03:43.526Z,11.30
2019-04-30T05:06:24.384Z,11.40
2019-04-30T05:09:05.108Z,11.40
2019-04-30T05:11:46.205Z,11.40
2019-04-30T05:17:11.016Z,11.60
2019-04-30T05:19:51.274Z,11.60
2019-04-30T05:22:31.674Z,11.70
2019-04-30T05:25:12.300Z,11.70
2019-04-30T05:27:52.816Z,11.80
2019-04-30T05:30:33.636Z,11.80
2019-04-30T05:33:14.185Z,11.90
2019-04-30T05:35:55.036Z,11.90
2019-04-30T05:38:35.905Z,12.00
2019-04-30T05:41:16.594Z,12.10
2019-04-30T05:43:59.129Z,12.20
2019-04-30T05:46:40.211Z,12.30
2019-04-30T05:49:20.808Z,12.40
2019-04-30T05:52:01.417Z,12.40
2019-04-30T05:54:42.268Z,12.50
2019-04-30T05:57:23.112Z,12.70
2019-04-30T06:00:03.833Z,12.80
2019-04-30T06:02:44.628Z,13.00
2019-04-30T06:05:25.507Z,13.10
2019-04-30T06:08:06.344Z,13.20
2019-04-30T06:13:56.036Z,13.60
2019-04-30T06:16:39.309Z,14.50
2019-04-30T06:19:20.002Z,15.60
2019-04-30T06:22:07.836Z,16.30
2019-04-30T06:24:42.984Z,17.00
2019-04-30T06:27:23.832Z,18.00
2019-04-30T06:30:04.713Z,19.10
2019-04-30T06:32:45.308Z,19.80
2019-04-30T06:35:25.488Z,20.80
2019-04-30T06:38:06.044Z,21.90
2019-04-30T06:40:46.680Z,22.90
2019-04-30T06:43:28.716Z,23.90
2019-04-30T06:46:10.101Z,24.40
2019-04-30T06:48:51.150Z,25.20
2019-04-30T06:51:31.948Z,25.60
2019-04-30T06:54:12.850Z,26.20
2019-04-30T06:56:53.196Z,26.20
2019-04-30T06:59:35.092Z,26.50
2019-04-30T07:02:15.655Z,27.00
2019-04-30T07:04:56.104Z,27.40
2019-04-30T07:07:41.179Z,26.70
2019-04-30T07:10:24.332Z,26.40
2019-04-30T07:16:12.716Z,27.30
2019-04-30T07:18:53.592Z,27.60
2019-04-30T07:21:36.379Z,28.10
2019-04-30T07:24:16.763Z,28.10
2019-04-30T07:26:59.693Z,27.70
2019-04-30T07:29:39.972Z,27.80
2019-04-30T07:32:20.576Z,28.20
2019-04-30T07:35:01.409Z,28.30
2019-04-30T07:37:42.197Z,28.40
2019-04-30T07:40:23.100Z,28.60
2019-04-30T07:43:03.890Z,29.50
2019-04-30T07:45:45.028Z,30.50
2019-04-30T07:48:26.554Z,31.60
2019-04-30T07:51:09.851Z,32.40
2019-04-30T07:53:50.014Z,33.20
2019-04-30T07:59:13.673Z,33.60
2019-04-30T08:02:06.557Z,34.10
2019-04-30T08:04:59.421Z,34.60
2019-04-30T08:07:40.049Z,34.90
2019-04-30T08:09:38.370Z,33.80
2019-04-30T08:10:20.509Z,35.10
2019-04-30T08:13:09.716Z,35.40
2019-04-30T08:15:43.688Z,35.70
2019-04-30T08:18:24.973Z,35.80
2019-04-30T08:21:05.276Z,36.40
2019-04-30T08:23:45.868Z,36.70
2019-04-30T08:26:28.515Z,37.00
2019-04-30T08:29:09.610Z,37.40
2019-04-30T08:31:50.664Z,37.00
2019-04-30T08:34:31.029Z,37.00
2019-04-30T08:37:17.296Z,37.00
2019-04-30T08:39:53.968Z,37.20
2019-04-30T08:42:37.596Z,37.30
2019-04-30T08:45:17.224Z,37.70
2019-04-30T08:47:59.040Z,37.70
2019-04-30T08:50:40.525Z,37.90
2019-04-30T08:53:29.451Z,38.10
2019-04-30T08:56:04.200Z,38.30
2019-04-30T08:58:44.933Z,38.60
2019-04-30T09:01:25.550Z,38.90
2019-04-30T09:04:07.583Z,38.70
2019-04-30T09:06:49.290Z,38.40
2019-04-30T09:09:29.991Z,38.00
2019-04-30T09:12:10.551Z,37.90
2019-04-30T09:14:51.565Z,37.90
2019-04-30T09:17:32.225Z,37.60
2019-04-30T09:20:13.248Z,37.60
2019-04-30T09:22:54.028Z,37.30
2019-04-30T09:25:34.531Z,36.90
2019-04-30T09:28:15.069Z,36.70
2019-04-30T09:30:56.026Z,36.20
2019-04-30T09:33:34.884Z,36.00
2019-04-30T09:36:22.615Z,36.00
2019-04-30T09:39:10.859Z,35.70
2019-04-30T09:41:59.623Z,35.60
2019-04-30T09:44:49.202Z,35.10
2019-04-30T09:47:37.799Z,34.80
2019-04-30T09:50:25.532Z,34.80
2019-04-30T09:53:13.361Z,34.80
2019-04-30T09:56:02.885Z,34.90
2019-04-30T09:58:50.710Z,34.60
2019-04-30T10:01:38.652Z,33.80
2019-04-30T10:04:26.915Z,33.40
2019-04-30T10:07:16.164Z,33.00
2019-04-30T10:10:05.415Z,32.60
2019-04-30T10:12:53.153Z,32.10
2019-04-30T10:18:49.689Z,31.50
2019-04-30T10:21:38.912Z,30.90
2019-04-30T10:24:27.136Z,30.50
2019-04-30T10:27:15.175Z,30.00
2019-04-30T10:30:23.623Z,29.70
2019-04-30T10:33:11.356Z,29.20
2019-04-30T10:35:59.516Z,28.80
2019-04-30T10:38:49.442Z,28.50
2019-04-30T10:41:39.522Z,28.10
2019-04-30T10:44:29.748Z,27.60
2019-04-30T10:47:19.183Z,27.50
2019-04-30T10:50:06.909Z,27.40
2019-04-30T10:52:54.916Z,27.30
2019-04-30T10:55:42.636Z,27.10
2019-04-30T10:58:30.381Z,27.00
2019-04-30T11:01:19.258Z,27.10
2019-04-30T11:04:22.104Z,26.90
2019-04-30T11:07:00.172Z,26.80
2019-04-30T11:09:49.342Z,26.50
2019-04-30T11:12:39.141Z,26.00
2019-04-30T11:15:29.177Z,25.70
2019-04-30T11:18:17.105Z,25.80
2019-04-30T11:21:06.689Z,26.00
2019-04-30T11:23:56.177Z,26.20
2019-04-30T11:26:46.385Z,26.40
2019-04-30T11:29:35.057Z,26.50
2019-04-30T11:35:12.524Z,26.70
2019-04-30T11:37:53.117Z,26.50
2019-04-30T11:40:36.988Z,26.30
2019-04-30T11:43:18.186Z,26.20
2019-04-30T11:46:00.299Z,26.00
2019-04-30T11:48:40.928Z,26.20
2019-04-30T11:51:21.572Z,26.30
2019-04-30T11:54:02.389Z,26.40
2019-04-30T11:56:42.876Z,26.50
2019-04-30T11:59:23.924Z,26.50
2019-04-30T12:04:49.437Z,26.90
2019-04-30T12:07:50.803Z,27.00
2019-04-30T12:10:33.516Z,27.10
2019-04-30T12:13:34.622Z,27.20
2019-04-30T12:16:14.789Z,27.20
2019-04-30T12:18:55.547Z,27.00
2019-04-30T12:21:36.097Z,27.00
2019-04-30T12:24:16.736Z,27.10
2019-04-30T12:26:57.260Z,27.20
2019-04-30T12:29:39.746Z,27.30
2019-04-30T12:32:21.407Z,27.30
2019-04-30T12:35:02.238Z,27.20
2019-04-30T12:37:42.640Z,27.20
2019-04-30T12:40:28.999Z,27.10
2019-04-30T12:43:06.220Z,27.30
2019-04-30T12:46:01.626Z,27.20
2019-04-30T12:48:34.774Z,27.30
2019-04-30T12:51:45.539Z,27.30
2019-04-30T12:54:22.448Z,27.40
2019-04-30T13:00:10.660Z,27.50
2019-04-30T13:02:51.095Z,27.50
2019-04-30T13:05:31.658Z,27.50
2019-04-30T13:08:12.535Z,27.60
2019-04-30T13:10:54.306Z,27.60
2019-04-30T13:13:35.826Z,27.40
2019-04-30T13:16:16.363Z,27.40
2019-04-30T13:18:59.273Z,27.40
2019-04-30T13:21:39.909Z,27.30
2019-04-30T13:24:20.218Z,27.40
2019-04-30T13:27:00.958Z,27.40
2019-04-30T13:29:43.218Z,27.40
2019-04-30T13:32:30.189Z,27.40
2019-04-30T13:35:09.100Z,27.40
2019-04-30T13:37:51.652Z,27.40
2019-04-30T13:43:48.687Z,26.20
2019-04-30T13:46:29.979Z,26.10
2019-04-30T13:49:10.669Z,26.40
2019-04-30T13:51:51.243Z,26.50
2019-04-30T13:54:31.953Z,26.70
2019-04-30T13:57:12.516Z,26.70
2019-04-30T13:59:53.144Z,26.70
2019-04-30T14:02:37.320Z,26.60
2019-04-30T14:05:18.340Z,26.80
2019-04-30T14:08:03.080Z,26.90
2019-04-30T14:10:44.556Z,26.80
2019-04-30T14:13:26.839Z,26.80
2019-04-30T14:16:07.856Z,26.80
2019-04-30T14:18:48.830Z,26.80
2019-04-30T14:21:34.490Z,26.80
2019-04-30T14:24:12.379Z,26.70
2019-04-30T14:26:53.246Z,26.70
2019-04-30T14:29:33.952Z,26.60
2019-04-30T14:32:14.759Z,26.70
2019-04-30T14:34:55.440Z,26.50
2019-04-30T14:37:38.740Z,26.50
2019-04-30T14:40:20.354Z,26.50
2019-04-30T14:46:16.536Z,26.30
2019-04-30T14:49:00.531Z,25.80
2019-04-30T14:51:40.877Z,25.20
2019-04-30T14:57:51.230Z,25.20
2019-04-30T15:03:39.363Z,24.90
2019-04-30T15:06:20.200Z,25.00
2019-04-30T15:09:01.044Z,24.90
2019-04-30T15:11:42.030Z,24.90
2019-04-30T15:14:22.199Z,24.90
2019-04-30T15:17:03.232Z,24.70
2019-04-30T15:19:43.779Z,24.60
2019-04-30T15:22:24.459Z,24.50
2019-04-30T15:25:04.964Z,24.40
2019-04-30T15:27:47.653Z,24.20
2019-04-30T15:30:28.986Z,24.10
2019-04-30T15:36:02.753Z,23.60
2019-04-30T15:41:50.012Z,23.30
2019-04-30T15:44:31.156Z,22.90
2019-04-30T15:47:11.471Z,22.90
2019-04-30T15:49:52.019Z,22.80
2019-04-30T15:52:35.992Z,22.60
2019-04-30T15:55:18.863Z,22.60
2019-04-30T15:58:01.595Z,22.70
2019-04-30T16:00:42.568Z,22.60
2019-04-30T16:03:24.976Z,22.40
2019-04-30T16:06:05.689Z,22.30
2019-04-30T16:14:36.887Z,22.20
2019-04-30T16:17:20.620Z,22.00
2019-04-30T16:20:01.668Z,21.80
2019-04-30T16:22:42.256Z,21.70
2019-04-30T16:25:22.875Z,21.70
2019-04-30T16:28:03.341Z,21.50
2019-04-30T16:30:44.060Z,21.50
2019-04-30T16:33:24.232Z,21.40
2019-04-30T16:38:49.435Z,21.30
2019-04-30T16:41:31.883Z,21.20
2019-04-30T16:44:12.488Z,21.10
2019-04-30T16:46:52.859Z,21.10
2019-04-30T16:49:33.560Z,21.10
2019-04-30T16:52:14.596Z,21.10
2019-04-30T16:54:55.254Z,21.00
2019-04-30T16:57:35.933Z,20.90
2019-04-30T17:00:16.148Z,20.80
2019-04-30T17:06:22.020Z,20.70
2019-04-30T17:09:04.641Z,20.60
2019-04-30T17:14:51.016Z,20.30
2019-04-30T17:17:32.032Z,20.20
2019-04-30T17:20:12.311Z,20.10
2019-04-30T17:25:36.983Z,20.10
2019-04-30T17:28:18.810Z,20.10
2019-04-30T17:30:59.728Z,19.90
2019-04-30T17:33:40.093Z,19.90
2019-04-30T17:36:20.983Z,19.80
2019-04-30T17:39:01.380Z,19.80
2019-04-30T17:41:42.387Z,19.80
2019-04-30T17:44:23.052Z,19.70
2019-04-30T17:47:04.341Z,19.60
2019-04-30T17:49:44.939Z,19.50
2019-04-30T17:52:27.419Z,19.30
2019-04-30T17:55:09.687Z,19.20
2019-04-30T17:57:50.699Z,19.10
2019-04-30T18:00:33.020Z,19.10
2019-04-30T18:03:14.372Z,19.00
2019-04-30T18:05:55.064Z,18.90
2019-04-30T18:08:35.743Z,18.80
2019-04-30T18:11:16.260Z,18.70
2019-04-30T18:13:59.007Z,18.60
2019-04-30T18:16:39.684Z,18.50
2019-04-30T18:19:39.260Z,18.30
2019-04-30T18:28:21.270Z,17.80
2019-04-30T18:31:01.708Z,17.70
2019-04-30T18:33:42.136Z,17.60
2019-04-30T18:36:22.751Z,17.50
2019-04-30T18:39:03.496Z,17.40
2019-04-30T18:41:44.192Z,17.20
2019-04-30T18:44:25.411Z,17.10
2019-04-30T18:47:06.401Z,17.00
2019-04-30T18:49:49.375Z,16.90
2019-04-30T18:52:30.356Z,16.80
2019-04-30T18:55:10.705Z,16.60
2019-04-30T18:57:56.685Z,16.50
2019-04-30T19:00:35.357Z,16.30
2019-04-30T19:03:19.133Z,16.20
2019-04-30T19:06:00.403Z,16.10
2019-04-30T19:08:42.235Z,15.90
2019-04-30T19:11:42.525Z,15.80
2019-04-30T19:17:24.475Z,15.70
2019-04-30T19:22:59.395Z,15.50
2019-04-30T19:25:39.824Z,15.40
2019-04-30T19:28:20.504Z,15.30
2019-04-30T19:31:01.397Z,15.30
2019-04-30T19:33:41.863Z,15.20
2019-04-30T19:36:33.892Z,15.10
2019-04-30T19:39:05.386Z,15.10
2019-04-30T19:41:45.903Z,15.00
2019-04-30T19:44:26.351Z,15.00
2019-04-30T19:47:06.980Z,14.90
2019-04-30T19:49:48.850Z,14.90
2019-04-30T19:52:30.103Z,14.80
2019-04-30T19:55:10.775Z,14.70
2019-04-30T19:57:51.391Z,14.70
2019-04-30T20:00:31.917Z,14.60
2019-04-30T20:03:12.446Z,14.50
2019-04-30T20:05:52.980Z,14.50
2019-04-30T20:08:33.356Z,14.50
2019-04-30T20:11:14.280Z,14.40
2019-04-30T20:13:54.920Z,14.40
2019-04-30T20:16:35.907Z,14.30
2019-04-30T20:19:16.905Z,14.20
2019-04-30T20:21:59.265Z,14.20
2019-04-30T20:24:39.938Z,14.10
2019-04-30T20:27:20.404Z,14.00
2019-04-30T20:30:01.347Z,13.90
2019-04-30T20:32:41.739Z,13.90
2019-04-30T20:35:22.340Z,13.70
2019-04-30T20:38:23.720Z,13.70
2019-04-30T20:41:05.695Z,13.60
2019-04-30T20:43:46.623Z,13.50
2019-04-30T20:46:32.652Z,13.40
2019-04-30T20:49:09.576Z,13.30
2019-04-30T20:51:55.541Z,13.20
2019-04-30T20:54:32.519Z,13.10
2019-04-30T20:57:13.145Z,13.10
2019-04-30T20:59:53.552Z,13.00
2019-04-30T21:02:34.383Z,12.90
2019-04-30T21:05:14.868Z,12.90
2019-04-30T21:07:55.281Z,12.80
2019-04-30T21:10:36.252Z,12.70
2019-04-30T21:13:16.820Z,12.70
2019-04-30T21:15:59.343Z,12.60
2019-04-30T21:18:40.164Z,12.60
2019-04-30T21:21:20.848Z,12.50
2019-04-30T21:24:01.187Z,12.40
2019-04-30T21:26:41.745Z,12.40
2019-04-30T21:29:22.468Z,12.30
2019-04-30T21:35:31.071Z,12.20
2019-04-30T21:38:12.119Z,12.20
2019-04-30T21:40:52.867Z,12.20
2019-04-30T21:43:33.464Z,12.10
2019-04-30T21:46:14.096Z,12.10
2019-04-30T21:48:55.109Z,12.00
2019-04-30T21:51:36.031Z,12.00
2019-04-30T21:54:16.776Z,11.90
2019-04-30T21:56:57.573Z,11.90
2019-04-30T21:59:38.829Z,11.80
2019-04-30T22:02:19.876Z,11.80
2019-04-30T22:05:00.380Z,11.70
2019-04-30T22:07:41.420Z,11.70
2019-04-30T22:10:22.095Z,11.60
2019-04-30T22:13:02.856Z,11.60
2019-04-30T22:15:43.755Z,11.50
2019-04-30T22:18:24.251Z,11.50
2019-04-30T22:21:05.036Z,11.40
2019-04-30T22:23:45.587Z,11.40
2019-04-30T22:26:26.533Z,11.30
2019-04-30T22:29:06.883Z,11.30
2019-04-30T22:31:49.354Z,11.20
2019-04-30T22:34:30.216Z,11.20
2019-04-30T22:37:10.832Z,11.10
2019-04-30T22:39:53.464Z,11.10
2019-04-30T22:42:34.935Z,11.00
2019-04-30T22:45:17.749Z,10.90
2019-04-30T22:47:58.840Z,10.90
2019-04-30T22:50:40.312Z,10.80
2019-04-30T22:53:21.052Z,10.70
2019-04-30T22:56:01.641Z,10.70
2019-04-30T22:58:42.657Z,10.60
2019-04-30T23:04:36.833Z,10.40
2019-04-30T23:07:18.260Z,10.30
2019-04-30T23:09:58.916Z,10.20
2019-04-30T23:12:39.760Z,10.10
2019-04-30T23:15:20.512Z,10.00
2019-04-30T23:18:01.036Z,9.90
2019-04-30T23:20:42.052Z,9.90
2019-04-30T23:23:22.777Z,9.90
2019-04-30T23:26:03.430Z,9.80
2019-04-30T23:28:44.136Z,9.70
2019-04-30T23:31:24.543Z,9.70
2019-04-30T23:36:49.028Z,9.60
2019-04-30T23:39:29.579Z,9.50
2019-04-30T23:42:10.132Z,9.50
2019-04-30T23:44:50.728Z,9.50
2019-04-30T23:47:31.156Z,9.50
2019-04-30T23:50:11.984Z,9.40
2019-04-30T23:52:52.556Z,9.40
2019-04-30T23:55:33.221Z,9.40
2019-04-30T23:58:13.699Z,9.30
